Time;durP1;ratioP1;P1;durP2;ratioP2;P2;SDS_P1;SDS_P2;PMS_P1;PMS_P2;Temp;Humidity;BMP_temperature;BMP_pressure;BME280_temperature;BME280_humidity;BME280_pressure;Samples;Min_cycle;Max_cycle;Signal;HPM_P1;HPM_P2
2021/08/18 00:00:48;;;;;;;18.25;13.63;;;;;;;14.84;84.35;99683.09;5102327;27;20036;-71
2021/08/18 00:03:14;;;;;;;16.20;12.77;;;;;;;14.84;84.52;99688.41;5097403;27;20032;-70
2021/08/18 00:05:40;;;;;;;15.40;13.48;;;;;;;14.81;84.29;99682.34;5091756;27;20035;-70
2021/08/18 00:08:07;;;;;;;14.68;12.20;;;;;;;14.85;84.46;99684.81;5092262;27;20440;-71
2021/08/18 00:10:33;;;;;;;14.80;11.50;;;;;;;14.85;84.55;99688.31;5091996;27;20040;-70
2021/08/18 00:12:59;;;;;;;17.02;12.93;;;;;;;14.87;84.27;99682.94;5092783;27;20483;-71
2021/08/18 00:15:25;;;;;;;15.35;12.68;;;;;;;14.89;84.40;99688.94;5090679;27;20032;-70
2021/08/18 00:17:54;;;;;;;15.38;12.65;;;;;;;14.90;84.35;99685.34;5090387;27;20032;-70
2021/08/18 00:20:19;;;;;;;12.63;11.18;;;;;;;14.92;84.41;99686.09;5091081;27;20059;-70
2021/08/18 00:22:45;;;;;;;13.93;12.38;;;;;;;14.94;84.36;99684.16;5090156;27;20051;-71
2021/08/18 00:25:10;;;;;;;15.48;12.45;;;;;;;14.92;84.04;99689.59;5090440;27;20040;-70
2021/08/18 00:27:36;;;;;;;17.45;14.55;;;;;;;14.90;84.11;99688.84;5086758;27;20541;-71
2021/08/18 00:30:01;;;;;;;15.98;14.18;;;;;;;14.92;84.24;99686.09;5089914;27;20020;-71
2021/08/18 00:32:26;;;;;;;16.95;13.85;;;;;;;14.94;84.15;99686.81;5089418;27;20029;-70
2021/08/18 00:34:52;;;;;;;28.88;15.50;;;;;;;14.95;84.28;99683.22;5089543;27;20531;-70
2021/08/18 00:37:17;;;;;;;23.73;17.10;;;;;;;14.95;84.26;99681.44;5056541;27;20592;-71
2021/08/18 00:39:42;;;;;;;16.92;15.05;;;;;;;14.96;84.30;99674.31;5068876;28;20033;-70
2021/08/18 00:42:08;;;;;;;18.77;16.42;;;;;;;14.97;83.92;99676.03;5079177;27;20048;-71
2021/08/18 00:44:37;;;;;;;19.92;17.13;;;;;;;14.98;84.04;99677.72;5083269;27;20097;-71
2021/08/18 00:47:04;;;;;;;18.20;15.00;;;;;;;14.98;83.87;99675.06;5090022;27;20032;-71
2021/08/18 00:49:30;;;;;;;20.05;15.68;;;;;;;14.97;83.67;99671.56;5089974;27;20028;-70
2021/08/18 00:51:57;;;;;;;18.95;16.00;;;;;;;14.98;84.01;99667.94;5087804;27;20359;-71
2021/08/18 00:54:23;;;;;;;16.88;15.10;;;;;;;14.98;83.94;99675.06;5089218;27;20395;-70
2021/08/18 00:56:49;;;;;;;18.90;16.02;;;;;;;15.00;84.08;99670.50;5087943;27;20035;-71
2021/08/18 00:59:15;;;;;;;19.33;16.50;;;;;;;14.99;84.22;99666.16;5088970;27;20032;-70
2021/08/18 01:01:42;;;;;;;19.73;16.67;;;;;;;14.97;84.33;99665.41;5062236;27;20051;-70
2021/08/18 01:04:08;;;;;;;21.02;16.42;;;;;;;14.97;84.55;99665.41;5092663;27;20476;-71
2021/08/18 01:06:40;;;;;;;21.15;17.73;;;;;;;15.00;84.98;99670.50;5092219;27;20028;-71
2021/08/18 01:09:06;;;;;;;19.98;16.13;;;;;;;15.00;84.65;99665.19;5093096;27;20392;-70
2021/08/18 01:11:36;;;;;;;19.75;16.60;;;;;;;15.00;84.72;99662.53;5092660;27;20036;-70
2021/08/18 01:14:02;;;;;;;20.65;16.80;;;;;;;15.00;84.62;99665.19;5092587;27;20566;-70
2021/08/18 01:16:31;;;;;;;23.45;18.63;;;;;;;14.96;84.65;99655.72;5092180;27;20555;-71
2021/08/18 01:18:57;;;;;;;22.83;18.58;;;;;;;14.97;85.05;99671.56;5092624;27;20055;-71
2021/08/18 01:21:23;;;;;;;22.35;17.35;;;;;;;14.97;84.97;99666.25;5092868;27;20028;-71
2021/08/18 01:23:48;;;;;;;22.00;19.17;;;;;;;14.96;84.84;99669.88;5092615;27;20077;-71
2021/08/18 01:26:13;;;;;;;26.25;18.88;;;;;;;14.97;84.97;99673.38;5092489;27;20048;-70
2021/08/18 01:28:39;;;;;;;21.63;17.05;;;;;;;14.99;84.91;99666.16;5092073;27;20108;-70
2021/08/18 01:31:04;;;;;;;26.90;20.90;;;;;;;14.96;84.76;99661.91;5092441;27;20052;-70
2021/08/18 01:33:29;;;;;;;20.58;18.13;;;;;;;14.98;84.99;99659.13;5091087;27;20036;-70
2021/08/18 01:35:55;;;;;;;23.20;20.15;;;;;;;14.98;84.90;99661.78;5091974;27;20028;-70
2021/08/18 01:38:21;;;;;;;29.90;21.48;;;;;;;14.99;84.76;99666.16;5091464;27;20039;-70
2021/08/18 01:40:50;;;;;;;26.27;21.90;;;;;;;14.99;84.79;99661.69;5090289;27;20024;-70
2021/08/18 01:43:16;;;;;;;25.80;20.27;;;;;;;15.02;84.72;99660.63;5091810;27;20039;-70
2021/08/18 01:45:44;;;;;;;23.80;19.48;;;;;;;15.04;84.82;99658.72;5091752;27;20032;-70
2021/08/18 01:48:17;;;;;;;26.30;22.70;;;;;;;15.02;84.81;99663.28;5090947;27;20040;-70
2021/08/18 01:50:45;;;;;;;27.63;21.70;;;;;;;15.01;85.12;99662.44;5089905;27;20043;-70
2021/08/18 01:53:10;;;;;;;32.25;22.25;;;;;;;15.01;85.31;99662.44;5077987;27;20111;-70
2021/08/18 01:55:36;;;;;;;24.02;19.98;;;;;;;15.00;85.68;99660.72;5071070;28;20174;-70
2021/08/18 01:58:01;;;;;;;25.15;19.33;;;;;;;14.98;85.67;99661.78;5070803;28;20028;-70
2021/08/18 02:00:29;;;;;;;19.73;16.90;;;;;;;14.95;86.08;99668.16;5070903;28;20024;-70
2021/08/18 02:02:55;;;;;;;20.60;17.38;;;;;;;14.94;85.94;99669.13;5071173;28;20028;-70
2021/08/18 02:05:22;;;;;;;19.77;17.10;;;;;;;14.93;86.21;99667.41;5072459;28;20455;-70
2021/08/18 02:07:48;;;;;;;19.63;15.52;;;;;;;14.94;86.22;99671.78;5068972;28;20109;-70
2021/08/18 02:10:15;;;;;;;20.83;15.55;;;;;;;14.96;85.75;99671.66;5071594;28;21764;-69
2021/08/18 02:12:41;;;;;;;19.20;14.85;;;;;;;14.95;86.06;99668.16;5071360;28;20032;-69
2021/08/18 02:15:16;;;;;;;17.63;14.50;;;;;;;14.97;86.53;99662.75;5070231;28;20111;-69
2021/08/18 02:17:42;;;;;;;14.63;13.13;;;;;;;14.95;86.19;99664.66;5070465;28;20095;-70
2021/08/18 02:20:12;;;;;;;19.35;13.02;;;;;;;14.96;86.17;99659.25;5071149;28;20488;-69
2021/08/18 02:22:37;;;;;;;13.10;11.70;;;;;;;14.96;85.75;99659.25;5070359;28;20048;-70
2021/08/18 02:25:05;;;;;;;13.48;11.55;;;;;;;14.97;85.94;99662.75;5070877;28;20630;-70
2021/08/18 02:27:31;;;;;;;13.48;12.10;;;;;;;14.98;85.83;99662.63;5069773;28;20040;-70
2021/08/18 02:29:56;;;;;;;25.33;14.25;;;;;;;14.99;86.00;99664.34;5069830;28;20039;-70
2021/08/18 02:32:22;;;;;;;15.07;12.73;;;;;;;15.02;85.88;99664.13;5071554;28;20063;-70
2021/08/18 02:34:47;;;;;;;16.02;12.93;;;;;;;15.03;86.05;99662.31;5068316;28;20384;-70
2021/08/18 02:37:12;;;;;;;15.63;12.75;;;;;;;15.06;86.07;99666.56;5074926;27;20048;-70
2021/08/18 02:39:38;;;;;;;15.00;13.40;;;;;;;15.06;85.95;99670.03;5087790;27;20032;-70
2021/08/18 02:42:04;;;;;;;15.40;12.32;;;;;;;15.05;85.70;99671.00;5089568;27;20032;-70
2021/08/18 02:44:29;;;;;;;19.08;14.90;;;;;;;15.06;85.57;99662.09;5087883;27;20043;-69
2021/08/18 02:46:54;;;;;;;18.13;15.88;;;;;;;15.08;86.22;99669.94;5088367;27;20069;-69
2021/08/18 02:49:20;;;;;;;26.67;18.63;;;;;;;15.08;85.82;99672.59;5090720;27;20107;-70
2021/08/18 02:51:45;;;;;;;29.95;20.60;;;;;;;15.06;85.67;99672.69;5089589;27;20545;-70
2021/08/18 02:54:11;;;;;;;24.48;19.67;;;;;;;15.07;85.77;99665.63;5087956;27;20024;-70
2021/08/18 02:56:37;;;;;;;32.50;24.52;;;;;;;15.09;85.70;99667.19;5087354;27;20510;-70
2021/08/18 02:59:02;;;;;;;27.80;22.63;;;;;;;15.12;85.78;99664.31;5091046;27;20060;-70
2021/08/18 03:01:28;;;;;;;26.25;21.50;;;;;;;15.16;85.57;99664.94;5090216;27;20024;-70
2021/08/18 03:03:53;;;;;;;25.45;20.13;;;;;;;15.18;85.37;99663.88;5091357;27;20109;-70
2021/08/18 03:06:18;;;;;;;22.98;20.13;;;;;;;15.21;85.45;99666.34;5088588;27;20036;-71
2021/08/18 03:08:44;;;;;;;25.40;20.30;;;;;;;15.23;85.19;99671.53;5088053;27;20501;-69
2021/08/18 03:11:09;;;;;;;25.55;22.58;;;;;;;15.21;85.29;99670.78;5087536;27;20032;-69
2021/08/18 03:13:34;;;;;;;28.00;20.95;;;;;;;15.22;85.00;99672.50;5090708;27;20164;-69
2021/08/18 03:16:00;;;;;;;27.23;23.02;;;;;;;15.21;85.42;99666.34;5090543;27;20039;-70
2021/08/18 03:18:27;;;;;;;32.95;24.38;;;;;;;15.20;85.66;99664.63;5088574;28;20032;-69
2021/08/18 03:20:53;;;;;;;32.63;22.30;;;;;;;15.20;85.69;99667.28;5090397;27;20039;-69
2021/08/18 03:23:18;;;;;;;25.92;22.02;;;;;;;15.20;85.99;99674.41;5089875;27;20028;-69
2021/08/18 03:25:43;;;;;;;30.80;21.48;;;;;;;15.21;86.07;99665.47;5089240;27;20032;-69
2021/08/18 03:28:09;;;;;;;24.95;20.55;;;;;;;15.24;85.89;99665.28;5088500;27;20036;-69
2021/08/18 03:30:34;;;;;;;23.77;21.13;;;;;;;15.25;85.97;99673.13;5090174;27;20107;-69
2021/08/18 03:32:59;;;;;;;24.48;21.88;;;;;;;15.26;85.87;99671.34;5089616;27;20036;-69
2021/08/18 03:35:25;;;;;;;31.05;21.75;;;;;;;15.28;85.69;99666.75;5090613;27;20047;-69
2021/08/18 03:37:52;;;;;;;22.05;19.58;;;;;;;15.28;85.43;99666.75;5089439;27;20044;-69
2021/08/18 03:40:17;;;;;;;25.00;19.83;;;;;;;15.28;85.35;99671.22;5090268;27;20066;-69
2021/08/18 03:42:44;;;;;;;20.55;17.27;;;;;;;15.30;85.34;99670.13;5089850;27;20043;-69
2021/08/18 03:45:10;;;;;;;20.58;18.40;;;;;;;15.29;85.29;99668.47;5090018;27;20446;-69
2021/08/18 03:47:36;;;;;;;20.67;17.08;;;;;;;15.29;85.11;99667.63;5089141;27;20039;-69
2021/08/18 03:50:02;;;;;;;21.70;17.17;;;;;;;15.30;85.06;99674.59;5089810;27;20020;-69
2021/08/18 03:52:27;;;;;;;22.83;18.20;;;;;;;15.31;84.90;99677.16;5090307;27;20131;-69
2021/08/18 03:54:53;;;;;;;22.20;16.73;;;;;;;15.33;84.96;99677.03;5090175;27;20657;-70
2021/08/18 03:57:18;;;;;;;20.23;17.10;;;;;;;15.34;84.77;99670.78;5089704;27;20089;-70
2021/08/18 03:59:43;;;;;;;21.65;17.95;;;;;;;15.33;84.69;99667.25;5084594;27;20426;-68
2021/08/18 04:02:09;;;;;;;22.13;19.25;;;;;;;15.33;84.69;99677.03;5089667;27;20046;-68
2021/08/18 04:04:34;;;;;;;19.65;17.38;;;;;;;15.33;85.16;99675.22;5089369;27;20032;-70
2021/08/18 04:06:59;;;;;;;28.70;20.95;;;;;;;15.34;85.03;99676.09;5085959;27;20036;-68
2021/08/18 04:09:25;;;;;;;24.35;17.88;;;;;;;15.32;84.67;99673.53;5089401;27;20036;-68
2021/08/18 04:11:50;;;;;;;23.25;20.10;;;;;;;15.32;84.75;99680.66;5089491;27;20048;-68
2021/08/18 04:14:15;;;;;;;21.17;18.65;;;;;;;15.33;84.96;99680.53;5089762;27;20032;-69
2021/08/18 04:16:41;;;;;;;21.48;18.85;;;;;;;15.32;84.50;99678.00;5087373;27;20062;-69
2021/08/18 04:19:07;;;;;;;24.42;19.63;;;;;;;15.33;85.03;99679.69;5089060;27;20032;-68
2021/08/18 04:21:32;;;;;;;21.27;17.98;;;;;;;15.33;84.70;99680.53;5089680;27;20120;-67
2021/08/18 04:23:57;;;;;;;20.27;17.90;;;;;;;15.34;84.74;99674.28;5089222;27;20028;-68
2021/08/18 04:26:23;;;;;;;21.98;19.35;;;;;;;15.35;84.81;99675.13;5089240;27;20036;-68
2021/08/18 04:28:48;;;;;;;20.85;18.58;;;;;;;15.34;84.78;99670.78;5088901;27;20025;-69
2021/08/18 04:31:13;;;;;;;23.02;20.42;;;;;;;15.34;84.66;99666.31;5089342;27;20111;-69
2021/08/18 04:33:39;;;;;;;23.02;19.63;;;;;;;15.37;84.79;99675.88;5089354;27;20036;-68
2021/08/18 04:36:04;;;;;;;25.80;21.27;;;;;;;15.37;85.12;99676.72;5088997;27;20073;-69
2021/08/18 04:38:29;;;;;;;22.42;18.50;;;;;;;15.37;85.00;99670.56;5086946;27;20032;-70
2021/08/18 04:40:55;;;;;;;23.20;20.27;;;;;;;15.37;84.96;99673.22;5085985;28;20051;-68
2021/08/18 04:43:20;;;;;;;19.42;17.30;;;;;;;15.38;85.03;99669.59;5088111;27;20089;-68
2021/08/18 04:45:46;;;;;;;22.60;19.50;;;;;;;15.40;84.64;99668.53;5088724;27;20114;-70
2021/08/18 04:48:12;;;;;;;19.45;16.30;;;;;;;15.44;84.83;99663.84;5087785;27;20076;-68
2021/08/18 04:50:38;;;;;;;19.65;16.52;;;;;;;15.46;84.80;99670.75;5088856;27;20494;-72
2021/08/18 04:53:08;;;;;;;23.88;20.10;;;;;;;15.47;84.30;99671.59;5088904;27;20103;-68
2021/08/18 04:55:33;;;;;;;25.08;18.40;;;;;;;15.47;84.39;99671.59;5088956;27;20035;-68
2021/08/18 04:57:59;;;;;;;17.00;15.18;;;;;;;15.48;84.40;99672.44;5088654;27;20139;-69
2021/08/18 05:00:24;;;;;;;20.60;16.23;;;;;;;15.50;84.37;99674.03;5089147;27;20107;-69
2021/08/18 05:02:49;;;;;;;19.92;15.60;;;;;;;15.52;84.43;99669.47;5088613;27;20480;-69
2021/08/18 05:05:15;;;;;;;16.70;14.90;;;;;;;15.52;84.45;99669.47;5087042;27;20430;-70
2021/08/18 05:07:40;;;;;;;18.98;15.95;;;;;;;15.51;84.11;99673.09;5088104;27;20408;-73
2021/08/18 05:10:06;;;;;;;17.25;15.45;;;;;;;15.48;84.31;99670.66;5088736;27;20503;-71
2021/08/18 05:12:32;;;;;;;23.15;18.63;;;;;;;15.49;84.44;99664.38;5088835;27;20032;-68
2021/08/18 05:14:57;;;;;;;20.48;18.30;;;;;;;15.49;84.15;99664.38;5090533;27;20036;-69
2021/08/18 05:17:23;;;;;;;26.30;19.13;;;;;;;15.49;84.87;99666.19;5089849;27;20070;-72
2021/08/18 05:19:48;;;;;;;21.63;17.63;;;;;;;15.46;84.52;99673.41;5087749;27;20032;-68
2021/08/18 05:22:13;;;;;;;19.85;17.75;;;;;;;15.46;84.75;99672.56;5089515;27;20044;-69
2021/08/18 05:24:39;;;;;;;21.90;18.35;;;;;;;15.45;84.73;99662.88;5090680;27;20039;-70
2021/08/18 05:27:04;;;;;;;19.50;16.88;;;;;;;15.44;84.93;99662.03;5089993;27;20036;-69
2021/08/18 05:29:30;;;;;;;19.88;17.17;;;;;;;15.49;84.89;99668.84;5088772;27;20036;-69
2021/08/18 05:31:55;;;;;;;24.85;18.60;;;;;;;15.51;84.80;99667.78;5088555;27;20039;-69
2021/08/18 05:34:20;;;;;;;21.65;17.65;;;;;;;15.53;84.52;99671.19;5087648;27;20044;-68
2021/08/18 05:36:46;;;;;;;19.75;17.63;;;;;;;15.55;84.31;99666.56;5086454;27;20459;-68
2021/08/18 05:39:11;;;;;;;23.90;17.17;;;;;;;15.55;84.09;99679.88;5088124;27;20032;-71
2021/08/18 05:41:36;;;;;;;20.80;16.95;;;;;;;15.57;84.17;99677.94;5086298;27;20105;-68
2021/08/18 05:44:02;;;;;;;20.48;17.67;;;;;;;15.60;84.22;99679.53;5087585;27;20043;-69
2021/08/18 05:46:27;;;;;;;21.63;17.05;;;;;;;15.62;84.64;99674.97;5087517;27;20131;-72
2021/08/18 05:48:52;;;;;;;22.88;18.50;;;;;;;15.62;83.66;99674.97;5087854;27;20400;-69
2021/08/18 05:51:18;;;;;;;19.83;17.38;;;;;;;15.62;83.79;99678.47;5091326;27;20067;-69
2021/08/18 05:53:49;;;;;;;19.67;17.40;;;;;;;15.64;83.91;99679.22;5091718;27;20024;-68
2021/08/18 05:56:14;;;;;;;21.60;17.17;;;;;;;15.67;83.65;99676.31;5091255;27;20087;-69
2021/08/18 05:58:40;;;;;;;19.98;16.65;;;;;;;15.67;83.63;99676.31;5089871;27;20475;-71
2021/08/18 06:01:05;;;;;;;23.15;18.25;;;;;;;15.70;83.48;99682.41;5089251;27;20024;-69
2021/08/18 06:03:30;;;;;;;24.27;18.65;;;;;;;15.67;83.56;99678.97;5091980;27;20024;-69
2021/08/18 06:05:56;;;;;;;20.73;18.00;;;;;;;15.68;83.84;99678.03;5090293;28;20384;-70
2021/08/18 06:08:21;;;;;;;39.95;18.95;;;;;;;15.73;83.73;99676.91;5090090;27;20036;-67
2021/08/18 06:10:46;;;;;;;25.05;18.88;;;;;;;15.74;83.55;99674.13;5092749;27;20534;-68
2021/08/18 06:13:13;;;;;;;26.27;17.92;;;;;;;15.76;83.79;99680.19;5100170;27;20051;-68
2021/08/18 06:15:38;;;;;;;22.65;17.63;;;;;;;15.75;83.05;99677.63;5099881;27;20034;-69
2021/08/18 06:18:04;;;;;;;20.92;17.70;;;;;;;15.78;83.38;99674.75;5095474;27;20134;-71
2021/08/18 06:20:29;;;;;;;21.15;17.98;;;;;;;15.79;83.26;99671.13;5091863;28;20043;-68
2021/08/18 06:22:55;;;;;;;20.02;17.38;;;;;;;15.80;82.84;99675.47;5092520;27;20032;-69
2021/08/18 06:25:20;;;;;;;19.48;16.45;;;;;;;15.80;83.32;99676.34;5073491;27;20540;-71
2021/08/18 06:27:46;;;;;;;20.25;16.65;;;;;;;15.84;83.35;99680.47;5090820;27;20051;-67
2021/08/18 06:30:11;;;;;;;22.40;18.85;;;;;;;15.82;83.01;99682.38;5090670;27;20509;-68
2021/08/18 06:32:37;;;;;;;23.75;17.90;;;;;;;15.81;82.79;99679.84;5091592;27;20032;-72
2021/08/18 06:35:03;;;;;;;21.20;16.95;;;;;;;15.82;83.16;99679.72;5091878;27;20036;-68
2021/08/18 06:37:29;;;;;;;21.88;17.20;;;;;;;15.84;82.90;99679.63;5090609;27;20039;-69
2021/08/18 06:39:54;;;;;;;20.25;16.25;;;;;;;15.90;83.09;99676.53;5090233;27;20104;-68
2021/08/18 06:42:19;;;;;;;19.55;16.77;;;;;;;15.94;82.68;99679.78;5089945;27;20071;-69
2021/08/18 06:44:48;;;;;;;20.02;16.60;;;;;;;15.94;82.74;99677.97;5076800;27;20036;-72
2021/08/18 06:47:15;;;;;;;18.75;14.75;;;;;;;15.98;82.46;99674.13;5070048;28;20451;-69
2021/08/18 06:49:40;;;;;;;16.63;13.50;;;;;;;16.01;82.60;99673.91;5071066;28;20025;-67
2021/08/18 06:52:06;;;;;;;18.65;14.73;;;;;;;16.05;82.14;99686.03;5071161;28;20067;-69
2021/08/18 06:54:31;;;;;;;17.80;14.50;;;;;;;16.03;82.08;99674.66;5071809;28;20040;-73
2021/08/18 06:56:57;;;;;;;17.08;14.20;;;;;;;16.06;82.12;99682.41;5070491;28;20029;-69
2021/08/18 06:59:22;;;;;;;16.85;13.70;;;;;;;16.08;82.02;99675.16;5072090;28;20085;-69
2021/08/18 07:01:48;;;;;;;16.88;13.93;;;;;;;16.14;81.87;99681.81;5070972;28;20131;-69
2021/08/18 07:04:13;;;;;;;18.52;12.88;;;;;;;16.15;81.89;99682.69;5070426;28;20043;-67
2021/08/18 07:06:39;;;;;;;18.63;12.65;;;;;;;16.16;81.42;99679.06;5069719;28;20037;-68
2021/08/18 07:09:04;;;;;;;14.90;11.25;;;;;;;16.18;81.75;99679.81;5070589;28;20404;-67
2021/08/18 07:11:30;;;;;;;14.93;12.75;;;;;;;16.20;81.70;99681.38;5070293;28;20032;-71
2021/08/18 07:13:59;;;;;;;15.18;11.73;;;;;;;16.25;81.32;99676.56;5066170;28;20041;-68
2021/08/18 07:16:25;;;;;;;14.98;12.35;;;;;;;16.28;81.38;99679.00;5057771;28;20033;-69
2021/08/18 07:18:51;;;;;;;13.20;11.80;;;;;;;16.34;80.99;99680.34;5054936;28;20503;-68
2021/08/18 07:21:20;;;;;;;12.38;11.07;;;;;;;16.35;80.54;99679.38;5052907;28;20036;-69
2021/08/18 07:23:46;;;;;;;12.32;10.90;;;;;;;16.33;80.55;99675.16;5059914;28;20033;-68
2021/08/18 07:26:11;;;;;;;15.45;10.68;;;;;;;16.34;80.43;99668.84;5058123;28;20043;-69
2021/08/18 07:28:36;;;;;;;14.13;10.35;;;;;;;16.35;80.31;99671.41;5057485;28;20055;-69
2021/08/18 07:31:02;;;;;;;11.50;10.25;;;;;;;16.45;80.03;99677.72;5057584;28;20029;-70
2021/08/18 07:33:27;;;;;;;11.75;10.52;;;;;;;16.52;79.90;99665.66;5058148;28;20032;-68
2021/08/18 07:35:52;;;;;;;10.43;9.10;;;;;;;16.65;79.89;99675.38;5058352;28;20400;-69
2021/08/18 07:38:18;;;;;;;14.55;9.38;;;;;;;16.74;79.45;99670.19;5057005;28;20488;-68
2021/08/18 07:40:43;;;;;;;10.18;8.70;;;;;;;16.85;78.72;99674.72;5059330;28;20081;-68
2021/08/18 07:43:08;;;;;;;9.70;7.40;;;;;;;16.88;77.43;99681.63;5057958;28;20104;-71
2021/08/18 07:45:34;;;;;;;9.20;6.90;;;;;;;16.95;77.29;99680.19;5051500;28;20129;-67
2021/08/18 07:47:59;;;;;;;13.82;7.70;;;;;;;17.04;77.11;99674.16;5049169;28;20045;-68
2021/08/18 07:50:24;;;;;;;15.85;6.95;;;;;;;17.06;76.21;99684.69;5049276;28;20044;-69
2021/08/18 07:52:50;;;;;;;19.02;8.93;;;;;;;17.12;77.24;99674.38;5050006;28;20033;-68
2021/08/18 07:55:15;;;;;;;21.77;7.55;;;;;;;17.28;76.04;99678.53;5047845;28;20045;-68
2021/08/18 07:57:40;;;;;;;18.27;7.80;;;;;;;17.38;76.34;99680.34;5049833;28;20565;-68
2021/08/18 08:00:07;;;;;;;16.80;8.27;;;;;;;17.42;75.21;99674.75;5063621;28;20047;-67
2021/08/18 08:02:33;;;;;;;51.10;14.05;;;;;;;17.45;75.66;99679.84;5064045;28;20036;-68
2021/08/18 08:04:58;;;;;;;19.33;8.63;;;;;;;17.50;75.40;99682.97;5068858;28;20365;-67
2021/08/18 08:07:24;;;;;;;10.05;6.47;;;;;;;17.45;74.87;99678.03;5079621;27;20047;-71
2021/08/18 08:09:50;;;;;;;10.27;7.30;;;;;;;17.46;75.58;99685.06;5089602;27;20032;-70
2021/08/18 08:12:15;;;;;;;11.82;7.57;;;;;;;17.44;74.79;99684.31;5087517;27;20038;-68
2021/08/18 08:14:40;;;;;;;12.93;8.05;;;;;;;17.50;75.03;99683.84;5090346;27;20028;-68
2021/08/18 08:17:06;;;;;;;8.50;7.07;;;;;;;17.71;74.76;99686.59;5088955;27;20085;-69
2021/08/18 08:19:31;;;;;;;8.73;7.85;;;;;;;17.70;74.45;99687.59;5088888;27;20483;-70
2021/08/18 08:21:57;;;;;;;11.32;8.93;;;;;;;17.67;74.03;99690.50;5089022;27;20039;-66
2021/08/18 08:24:22;;;;;;;9.40;7.72;;;;;;;17.63;74.35;99690.88;5089157;27;20089;-67
2021/08/18 08:26:47;;;;;;;16.55;9.77;;;;;;;17.58;74.26;99696.56;5088365;27;20055;-67
2021/08/18 08:29:13;;;;;;;11.57;8.73;;;;;;;17.62;73.88;99684.66;5082337;27;20044;-65
2021/08/18 08:31:39;;;;;;;13.55;9.55;;;;;;;17.65;73.67;99694.25;5066933;28;20043;-65
2021/08/18 08:34:04;;;;;;;10.73;9.18;;;;;;;17.65;74.09;99694.25;5069082;28;20033;-65
2021/08/18 08:36:30;;;;;;;13.50;10.63;;;;;;;17.65;74.19;99692.44;5061700;28;20396;-65
2021/08/18 08:38:55;;;;;;;14.73;11.00;;;;;;;17.65;74.41;99692.44;5062736;28;20028;-65
2021/08/18 08:41:21;;;;;;;12.73;11.40;;;;;;;17.62;74.36;99692.66;5070086;27;20040;-66
2021/08/18 08:43:46;;;;;;;12.32;10.73;;;;;;;17.61;73.56;99696.31;5084552;27;20035;-66
2021/08/18 08:46:12;;;;;;;12.68;10.95;;;;;;;17.59;74.34;99698.25;5067071;28;20119;-67
2021/08/18 08:48:39;;;;;;;15.93;11.85;;;;;;;17.62;74.57;99698.00;5066613;28;20032;-66
2021/08/18 08:51:07;;;;;;;14.35;11.95;;;;;;;17.66;74.68;99709.28;5051113;28;20033;-67
2021/08/18 08:53:34;;;;;;;15.25;11.70;;;;;;;17.59;74.72;99704.41;5057905;28;20049;-64
2021/08/18 08:55:59;;;;;;;16.67;13.25;;;;;;;17.55;74.64;99708.31;5060490;28;20028;-65
2021/08/18 08:58:25;;;;;;;14.20;12.02;;;;;;;17.55;74.92;99715.47;5061040;28;20135;-67
2021/08/18 09:00:51;;;;;;;16.98;12.85;;;;;;;17.59;75.16;99704.41;5062506;28;20086;-66
2021/08/18 09:03:23;;;;;;;27.67;13.68;;;;;;;17.65;74.96;99712.94;5056851;28;20063;-66
2021/08/18 09:05:50;;;;;;;17.80;11.60;;;;;;;17.72;74.91;99711.44;5040728;28;20033;-66
2021/08/18 09:08:19;;;;;;;23.70;12.50;;;;;;;17.80;74.71;99704.56;5040309;28;20120;-66
2021/08/18 09:11:14;;;;;;;16.50;10.25;;;;;;;17.71;73.69;99707.09;5046144;28;20040;-66
2021/08/18 09:13:41;;;;;;;11.98;8.98;;;;;;;17.59;74.72;99709.75;5062679;28;20111;-65
2021/08/18 09:16:07;;;;;;;18.95;9.68;;;;;;;17.58;74.75;99702.75;5063622;28;20032;-66
2021/08/18 09:18:41;;;;;;;18.92;9.57;;;;;;;17.70;74.09;99708.91;5061835;28;20039;-67
2021/08/18 09:21:27;;;;;;;12.65;8.55;;;;;;;17.75;74.27;99698.72;5063154;28;20086;-66
2021/08/18 09:24:15;;;;;;;13.00;6.93;;;;;;;17.80;73.90;99704.56;5061268;28;20032;-66
2021/08/18 09:26:47;;;;;;;12.77;7.55;;;;;;;17.81;74.11;99703.56;5065283;28;20118;-66
2021/08/18 09:29:34;;;;;;;16.90;7.95;;;;;;;17.89;73.75;99699.44;5066726;28;20754;-66
2021/08/18 09:32:20;;;;;;;15.00;7.25;;;;;;;17.87;73.01;99704.06;5066566;28;20033;-66
2021/08/18 09:35:13;;;;;;;12.40;6.72;;;;;;;17.94;74.03;99703.47;5066016;28;20145;-66
2021/08/18 09:37:42;;;;;;;9.57;5.68;;;;;;;18.20;72.69;99695.97;5064272;28;20044;-66
2021/08/18 09:40:36;;;;;;;7.40;4.95;;;;;;;18.65;73.05;99703.78;5065929;28;20036;-71
2021/08/18 09:43:11;;;;;;;7.43;5.57;;;;;;;18.58;72.95;99699.09;5062930;27;20043;-71
2021/08/18 09:45:39;;;;;;;18.70;6.60;;;;;;;18.57;71.54;99700.91;5057125;28;20276;-71
2021/08/18 09:48:07;;;;;;;37.17;10.50;;;;;;;18.88;71.25;99698.38;5053685;28;20098;-72
2021/08/18 09:50:47;;;;;;;42.50;11.02;;;;;;;19.24;68.41;99697.00;5065601;28;20077;-71
2021/08/18 09:53:27;;;;;;;17.33;8.00;;;;;;;19.25;67.82;99700.56;5065866;28;20059;-71
2021/08/18 09:56:05;;;;;;;9.38;7.28;;;;;;;19.16;68.11;99699.50;5065052;28;20524;-71
2021/08/18 09:58:39;;;;;;;38.92;10.77;;;;;;;19.09;68.30;99693.00;5064822;28;20340;-71
2021/08/18 10:01:10;;;;;;;26.85;9.02;;;;;;;19.39;67.16;99691.31;5074704;27;20051;-70
2021/08/18 10:03:37;;;;;;;22.63;9.88;;;;;;;20.03;65.08;99690.97;5086219;27;20111;-71
2021/08/18 10:06:06;;;;;;;7.95;6.97;;;;;;;20.47;63.64;99695.94;5066196;28;20456;-71
2021/08/18 10:08:33;;;;;;;19.13;8.15;;;;;;;21.38;59.88;99691.81;5063161;28;20039;-71
2021/08/18 10:10:58;;;;;;;8.52;5.72;;;;;;;20.99;60.55;99693.78;5065608;28;20032;-72
2021/08/18 10:13:24;;;;;;;11.45;7.05;;;;;;;20.70;60.85;99689.34;5065926;27;20036;-71
2021/08/18 10:15:51;;;;;;;7.95;6.03;;;;;;;20.36;62.15;99692.41;5066264;28;20020;-71
2021/08/18 10:18:27;;;;;;;8.75;5.47;;;;;;;20.07;63.36;99691.53;5064536;28;20037;-71
2021/08/18 10:20:56;;;;;;;13.00;6.07;;;;;;;19.94;64.28;99692.66;5066193;28;20755;-70
2021/08/18 10:23:39;;;;;;;17.48;5.72;;;;;;;19.82;63.90;99693.75;5065997;28;20044;-71
2021/08/18 10:26:04;;;;;;;42.85;9.68;;;;;;;19.73;64.09;99692.72;5065337;28;20115;-71
2021/08/18 10:29:05;;;;;;;14.80;7.10;;;;;;;19.99;63.35;99689.56;5064338;28;20115;-71
2021/08/18 10:31:46;;;;;;;15.88;6.97;;;;;;;20.17;62.89;99692.41;5064939;28;20044;-71
2021/08/18 10:34:35;;;;;;;24.35;8.68;;;;;;;21.07;59.31;99685.00;5065129;28;20128;-72
2021/08/18 10:37:01;;;;;;;13.90;7.68;;;;;;;20.64;59.34;99672.97;5064266;28;20043;-70
2021/08/18 10:39:38;;;;;;;18.60;7.88;;;;;;;20.29;60.61;99677.06;5063986;28;20128;-71
2021/08/18 10:42:05;;;;;;;35.75;8.93;;;;;;;19.94;62.53;99679.28;5066680;27;20107;-71
2021/08/18 10:44:41;;;;;;;8.32;5.70;;;;;;;19.70;63.89;99686.81;5065553;27;20032;-71
2021/08/18 10:47:29;;;;;;;7.15;5.90;;;;;;;19.49;65.28;99679.69;5063009;28;20049;-70
2021/08/18 10:49:58;;;;;;;9.05;6.30;;;;;;;19.32;67.60;99680.31;5063701;28;21088;-71
2021/08/18 10:52:29;;;;;;;9.57;6.30;;;;;;;19.16;67.81;99674.63;5062551;28;20761;-71
2021/08/18 10:55:01;;;;;;;21.77;9.05;;;;;;;18.94;67.41;99675.63;5064799;28;20101;-71
2021/08/18 10:57:50;;;;;;;14.82;7.85;;;;;;;18.82;67.85;99683.69;5064504;28;20045;-71
2021/08/18 11:00:15;;;;;;;11.18;6.75;;;;;;;18.76;67.75;99683.38;5064755;28;20496;-71
2021/08/18 11:03:08;;;;;;;10.50;5.72;;;;;;;18.91;67.79;99675.88;5064677;28;20094;-71
2021/08/18 11:05:36;;;;;;;8.30;4.88;;;;;;;19.02;66.51;99676.63;5060720;28;20036;-72
2021/08/18 11:08:16;;;;;;;6.93;5.25;;;;;;;19.06;66.96;99670.06;5063402;28;20056;-71
2021/08/18 11:10:54;;;;;;;7.20;5.43;;;;;;;19.14;66.72;99663.22;5064626;28;20040;-71
2021/08/18 11:13:46;;;;;;;7.38;5.90;;;;;;;19.18;65.91;99667.31;5062683;28;20029;-70
2021/08/18 11:16:23;;;;;;;8.65;6.07;;;;;;;19.27;65.21;99663.81;5062856;28;20512;-71
2021/08/18 11:18:59;;;;;;;6.43;5.53;;;;;;;19.24;64.86;99659.59;5064728;28;20036;-71
2021/08/18 11:21:31;;;;;;;9.15;6.90;;;;;;;19.17;65.66;99663.78;5063610;28;20058;-71